Wildrose, North Dakota
Current Conditions -  °F | °C
As of 11:15 AM on Sunday 23 Nov 2014 (Local Time) from KD60 Reporting Station
Light Snow Light Snow  
Wind Chill: -4°   Ceiling: Unl
Heat Index: 16°   Visibility: 2.5mi
Dew Point: 16°   Wind: 28mph
Humidity: 100%   Direction: 310°NW
Pressure: 29.64"   Gusts: 36mph
Location:  48.63°N, 103.18°W
Report Text: KD60 231715Z AUTO 31024G31KT 2 1/2SM -SN FEW028 SCT050 M09/M09 A2964 RMK AO2 P0003
Loading
Personal Weather Stations






























Interactive Weather Map New forecast layout! Learn more

10-Day Weather Forecast

Advertisements
Track Severe Weather on mobile